sensor_id;sensor_type;location;lat;lon;timestamp;P1;durP1;ratioP1;P2;durP2;ratioP2
54271;SDS011;40184;53.362;5.216;2023-11-21T00:00:37;24.60;;;6.38;;
54271;SDS011;40184;53.362;5.216;2023-11-21T00:03:03;16.75;;;5.50;;
54271;SDS011;40184;53.362;5.216;2023-11-21T00:05:30;18.88;;;7.43;;
54271;SDS011;40184;53.362;5.216;2023-11-21T00:07:56;21.58;;;7.80;;
54271;SDS011;40184;53.362;5.216;2023-11-21T00:10:22;13.10;;;6.03;;
54271;SDS011;40184;53.362;5.216;2023-11-21T00:12:48;19.80;;;6.95;;
54271;SDS011;40184;53.362;5.216;2023-11-21T00:15:14;18.92;;;7.82;;
54271;SDS011;40184;53.362;5.216;2023-11-21T00:17:40;16.73;;;5.68;;
54271;SDS011;40184;53.362;5.216;2023-11-21T00:20:07;18.83;;;5.72;;
54271;SDS011;40184;53.362;5.216;2023-11-21T00:22:37;19.52;;;7.63;;
54271;SDS011;40184;53.362;5.216;2023-11-21T00:25:03;20.33;;;7.82;;
54271;SDS011;40184;53.362;5.216;2023-11-21T00:27:30;15.40;;;4.97;;
54271;SDS011;40184;53.362;5.216;2023-11-21T00:29:56;18.20;;;6.45;;
54271;SDS011;40184;53.362;5.216;2023-11-21T00:32:22;10.95;;;5.07;;
54271;SDS011;40184;53.362;5.216;2023-11-21T00:34:48;20.58;;;4.45;;
54271;SDS011;40184;53.362;5.216;2023-11-21T00:37:14;19.38;;;5.43;;
54271;SDS011;40184;53.362;5.216;2023-11-21T00:39:40;20.73;;;7.57;;
54271;SDS011;40184;53.362;5.216;2023-11-21T00:42:06;13.90;;;5.43;;
54271;SDS011;40184;53.362;5.216;2023-11-21T00:44:33;15.52;;;4.32;;
54271;SDS011;40184;53.362;5.216;2023-11-21T00:46:59;15.60;;;5.03;;
54271;SDS011;40184;53.362;5.216;2023-11-21T00:49:26;30.70;;;5.00;;
54271;SDS011;40184;53.362;5.216;2023-11-21T00:51:53;14.27;;;3.70;;
54271;SDS011;40184;53.362;5.216;2023-11-21T00:54:19;11.70;;;3.15;;
54271;SDS011;40184;53.362;5.216;2023-11-21T00:56:45;16.33;;;4.85;;
54271;SDS011;40184;53.362;5.216;2023-11-21T00:59:13;9.65;;;2.70;;
54271;SDS011;40184;53.362;5.216;2023-11-21T01:01:39;15.77;;;3.08;;
54271;SDS011;40184;53.362;5.216;2023-11-21T01:04:05;12.13;;;3.95;;
54271;SDS011;40184;53.362;5.216;2023-11-21T01:06:34;13.15;;;3.35;;
54271;SDS011;40184;53.362;5.216;2023-11-21T01:09:00;10.32;;;2.85;;
54271;SDS011;40184;53.362;5.216;2023-11-21T01:11:26;12.77;;;3.83;;
54271;SDS011;40184;53.362;5.216;2023-11-21T01:13:52;10.48;;;3.05;;
54271;SDS011;40184;53.362;5.216;2023-11-21T01:16:18;9.88;;;3.40;;
54271;SDS011;40184;53.362;5.216;2023-11-21T01:18:44;10.82;;;4.15;;
54271;SDS011;40184;53.362;5.216;2023-11-21T01:21:10;12.38;;;3.67;;
54271;SDS011;40184;53.362;5.216;2023-11-21T01:23:37;17.67;;;3.97;;
54271;SDS011;40184;53.362;5.216;2023-11-21T01:26:03;13.07;;;4.47;;
54271;SDS011;40184;53.362;5.216;2023-11-21T01:28:29;19.77;;;4.25;;
54271;SDS011;40184;53.362;5.216;2023-11-21T01:30:55;24.83;;;3.80;;
54271;SDS011;40184;53.362;5.216;2023-11-21T01:33:21;16.23;;;3.97;;
54271;SDS011;40184;53.362;5.216;2023-11-21T01:35:50;12.18;;;3.25;;
54271;SDS011;40184;53.362;5.216;2023-11-21T01:38:18;12.60;;;3.50;;
54271;SDS011;40184;53.362;5.216;2023-11-21T01:40:44;16.88;;;3.38;;
54271;SDS011;40184;53.362;5.216;2023-11-21T01:43:10;12.25;;;2.60;;
54271;SDS011;40184;53.362;5.216;2023-11-21T01:45:36;20.60;;;4.63;;
54271;SDS011;40184;53.362;5.216;2023-11-21T01:48:04;16.38;;;3.00;;
54271;SDS011;40184;53.362;5.216;2023-11-21T01:50:32;18.15;;;2.75;;
54271;SDS011;40184;53.362;5.216;2023-11-21T01:52:58;15.77;;;3.60;;
54271;SDS011;40184;53.362;5.216;2023-11-21T01:55:25;16.70;;;3.13;;
54271;SDS011;40184;53.362;5.216;2023-11-21T01:57:52;12.05;;;3.60;;
54271;SDS011;40184;53.362;5.216;2023-11-21T02:00:18;14.85;;;3.63;;
54271;SDS011;40184;53.362;5.216;2023-11-21T02:02:46;15.38;;;2.80;;
54271;SDS011;40184;53.362;5.216;2023-11-21T02:05:13;19.33;;;3.95;;
54271;SDS011;40184;53.362;5.216;2023-11-21T02:07:39;20.40;;;3.72;;
54271;SDS011;40184;53.362;5.216;2023-11-21T02:10:06;23.52;;;3.90;;
54271;SDS011;40184;53.362;5.216;2023-11-21T02:12:33;14.52;;;3.15;;
54271;SDS011;40184;53.362;5.216;2023-11-21T02:15:00;22.17;;;3.92;;
54271;SDS011;40184;53.362;5.216;2023-11-21T02:17:28;16.75;;;3.78;;
54271;SDS011;40184;53.362;5.216;2023-11-21T02:19:54;20.55;;;4.30;;
54271;SDS011;40184;53.362;5.216;2023-11-21T02:22:21;21.75;;;4.28;;
54271;SDS011;40184;53.362;5.216;2023-11-21T02:24:51;20.52;;;5.85;;
54271;SDS011;40184;53.362;5.216;2023-11-21T02:27:17;13.52;;;3.60;;
54271;SDS011;40184;53.362;5.216;2023-11-21T02:29:47;16.05;;;3.80;;
54271;SDS011;40184;53.362;5.216;2023-11-21T02:32:13;18.90;;;3.40;;
54271;SDS011;40184;53.362;5.216;2023-11-21T02:34:39;18.45;;;3.97;;
54271;SDS011;40184;53.362;5.216;2023-11-21T02:37:05;17.45;;;2.85;;
54271;SDS011;40184;53.362;5.216;2023-11-21T02:39:31;24.83;;;3.85;;
54271;SDS011;40184;53.362;5.216;2023-11-21T02:41:57;11.00;;;3.10;;
54271;SDS011;40184;53.362;5.216;2023-11-21T02:44:23;20.40;;;4.38;;
54271;SDS011;40184;53.362;5.216;2023-11-21T02:46:49;17.48;;;3.92;;
54271;SDS011;40184;53.362;5.216;2023-11-21T02:49:15;15.50;;;3.30;;
54271;SDS011;40184;53.362;5.216;2023-11-21T02:51:41;21.70;;;3.67;;
54271;SDS011;40184;53.362;5.216;2023-11-21T02:54:08;18.95;;;3.30;;
54271;SDS011;40184;53.362;5.216;2023-11-21T02:56:34;13.48;;;4.18;;
54271;SDS011;40184;53.362;5.216;2023-11-21T02:59:00;15.30;;;3.42;;
54271;SDS011;40184;53.362;5.216;2023-11-21T03:01:26;11.80;;;2.17;;
54271;SDS011;40184;53.362;5.216;2023-11-21T03:03:53;14.40;;;3.28;;
54271;SDS011;40184;53.362;5.216;2023-11-21T03:06:21;15.63;;;2.60;;
54271;SDS011;40184;53.362;5.216;2023-11-21T03:08:47;11.00;;;2.65;;
54271;SDS011;40184;53.362;5.216;2023-11-21T03:11:13;13.25;;;3.42;;
54271;SDS011;40184;53.362;5.216;2023-11-21T03:13:42;15.35;;;3.33;;
54271;SDS011;40184;53.362;5.216;2023-11-21T03:16:11;12.88;;;3.13;;
54271;SDS011;40184;53.362;5.216;2023-11-21T03:18:38;13.15;;;2.80;;
54271;SDS011;40184;53.362;5.216;2023-11-21T03:21:04;15.90;;;2.58;;
54271;SDS011;40184;53.362;5.216;2023-11-21T03:23:31;11.85;;;2.92;;
54271;SDS011;40184;53.362;5.216;2023-11-21T03:25:57;16.38;;;3.10;;
54271;SDS011;40184;53.362;5.216;2023-11-21T03:28:24;13.05;;;3.45;;
54271;SDS011;40184;53.362;5.216;2023-11-21T03:30:51;15.15;;;2.80;;
54271;SDS011;40184;53.362;5.216;2023-11-21T03:33:17;16.08;;;2.92;;
54271;SDS011;40184;53.362;5.216;2023-11-21T03:35:43;10.52;;;2.55;;
54271;SDS011;40184;53.362;5.216;2023-11-21T03:38:10;6.60;;;2.15;;
54271;SDS011;40184;53.362;5.216;2023-11-21T03:40:36;12.50;;;3.80;;
54271;SDS011;40184;53.362;5.216;2023-11-21T03:43:02;14.82;;;2.78;;
54271;SDS011;40184;53.362;5.216;2023-11-21T03:45:28;19.48;;;3.25;;
54271;SDS011;40184;53.362;5.216;2023-11-21T03:47:54;10.95;;;2.67;;
54271;SDS011;40184;53.362;5.216;2023-11-21T03:50:20;10.80;;;3.75;;
54271;SDS011;40184;53.362;5.216;2023-11-21T03:52:46;23.55;;;4.05;;
54271;SDS011;40184;53.362;5.216;2023-11-21T03:55:12;10.32;;;3.67;;
54271;SDS011;40184;53.362;5.216;2023-11-21T03:57:40;13.55;;;4.13;;
54271;SDS011;40184;53.362;5.216;2023-11-21T04:00:06;13.25;;;2.88;;
54271;SDS011;40184;53.362;5.216;2023-11-21T04:02:36;12.52;;;3.20;;
54271;SDS011;40184;53.362;5.216;2023-11-21T04:05:02;14.98;;;3.17;;
54271;SDS011;40184;53.362;5.216;2023-11-21T04:07:28;11.68;;;2.83;;
54271;SDS011;40184;53.362;5.216;2023-11-21T04:09:54;16.90;;;3.40;;
54271;SDS011;40184;53.362;5.216;2023-11-21T04:12:20;13.27;;;3.17;;
54271;SDS011;40184;53.362;5.216;2023-11-21T04:14:46;14.73;;;3.45;;
54271;SDS011;40184;53.362;5.216;2023-11-21T04:17:12;14.93;;;3.08;;
54271;SDS011;40184;53.362;5.216;2023-11-21T04:19:38;9.13;;;2.45;;
54271;SDS011;40184;53.362;5.216;2023-11-21T04:22:04;16.55;;;3.78;;
54271;SDS011;40184;53.362;5.216;2023-11-21T04:24:30;11.50;;;3.47;;
54271;SDS011;40184;53.362;5.216;2023-11-21T04:26:56;12.02;;;3.42;;
54271;SDS011;40184;53.362;5.216;2023-11-21T04:29:22;18.95;;;3.58;;
54271;SDS011;40184;53.362;5.216;2023-11-21T04:31:48;14.85;;;3.35;;
54271;SDS011;40184;53.362;5.216;2023-11-21T04:34:14;13.77;;;3.10;;
54271;SDS011;40184;53.362;5.216;2023-11-21T04:36:40;9.20;;;2.78;;
54271;SDS011;40184;53.362;5.216;2023-11-21T04:39:06;13.70;;;3.50;;
54271;SDS011;40184;53.362;5.216;2023-11-21T04:41:33;17.00;;;3.22;;
54271;SDS011;40184;53.362;5.216;2023-11-21T04:43:59;13.88;;;3.25;;
54271;SDS011;40184;53.362;5.216;2023-11-21T04:46:26;13.13;;;3.80;;
54271;SDS011;40184;53.362;5.216;2023-11-21T04:48:52;16.52;;;2.80;;
54271;SDS011;40184;53.362;5.216;2023-11-21T04:51:18;15.45;;;3.75;;
54271;SDS011;40184;53.362;5.216;2023-11-21T04:53:44;15.48;;;2.80;;
54271;SDS011;40184;53.362;5.216;2023-11-21T04:56:10;11.50;;;2.83;;
54271;SDS011;40184;53.362;5.216;2023-11-21T04:58:36;15.25;;;3.33;;
54271;SDS011;40184;53.362;5.216;2023-11-21T05:01:02;15.68;;;3.28;;
54271;SDS011;40184;53.362;5.216;2023-11-21T05:03:28;15.02;;;3.35;;
54271;SDS011;40184;53.362;5.216;2023-11-21T05:05:55;13.25;;;3.60;;
54271;SDS011;40184;53.362;5.216;2023-11-21T05:08:21;16.45;;;3.95;;
54271;SDS011;40184;53.362;5.216;2023-11-21T05:10:47;15.23;;;3.40;;
54271;SDS011;40184;53.362;5.216;2023-11-21T05:13:14;16.52;;;3.35;;
54271;SDS011;40184;53.362;5.216;2023-11-21T05:15:43;8.55;;;2.70;;
54271;SDS011;40184;53.362;5.216;2023-11-21T05:18:09;14.88;;;3.53;;
54271;SDS011;40184;53.362;5.216;2023-11-21T05:20:35;16.27;;;3.83;;
54271;SDS011;40184;53.362;5.216;2023-11-21T05:23:02;10.55;;;3.70;;
54271;SDS011;40184;53.362;5.216;2023-11-21T05:25:28;15.77;;;3.80;;
54271;SDS011;40184;53.362;5.216;2023-11-21T05:27:54;15.18;;;2.95;;
54271;SDS011;40184;53.362;5.216;2023-11-21T05:30:20;14.90;;;3.80;;
54271;SDS011;40184;53.362;5.216;2023-11-21T05:32:47;14.20;;;4.00;;
54271;SDS011;40184;53.362;5.216;2023-11-21T05:35:14;14.32;;;3.90;;
54271;SDS011;40184;53.362;5.216;2023-11-21T05:37:41;10.95;;;3.17;;
54271;SDS011;40184;53.362;5.216;2023-11-21T05:40:07;20.00;;;4.57;;
54271;SDS011;40184;53.362;5.216;2023-11-21T05:42:33;13.57;;;4.22;;
54271;SDS011;40184;53.362;5.216;2023-11-21T05:45:00;25.52;;;4.82;;
54271;SDS011;40184;53.362;5.216;2023-11-21T05:47:36;12.13;;;3.20;;
54271;SDS011;40184;53.362;5.216;2023-11-21T05:50:03;12.20;;;3.35;;
54271;SDS011;40184;53.362;5.216;2023-11-21T05:52:30;9.93;;;2.97;;
54271;SDS011;40184;53.362;5.216;2023-11-21T05:54:57;9.73;;;2.72;;
54271;SDS011;40184;53.362;5.216;2023-11-21T05:57:23;11.35;;;2.97;;
54271;SDS011;40184;53.362;5.216;2023-11-21T05:59:49;8.75;;;3.08;;
54271;SDS011;40184;53.362;5.216;2023-11-21T06:02:16;10.55;;;2.75;;
54271;SDS011;40184;53.362;5.216;2023-11-21T06:04:43;9.88;;;2.80;;
54271;SDS011;40184;53.362;5.216;2023-11-21T06:07:09;14.25;;;3.33;;
54271;SDS011;40184;53.362;5.216;2023-11-21T06:09:35;12.05;;;3.70;;
54271;SDS011;40184;53.362;5.216;2023-11-21T06:12:02;11.02;;;2.83;;
54271;SDS011;40184;53.362;5.216;2023-11-21T06:14:29;7.20;;;2.90;;
54271;SDS011;40184;53.362;5.216;2023-11-21T06:16:55;11.35;;;3.25;;
54271;SDS011;40184;53.362;5.216;2023-11-21T06:19:22;12.95;;;3.35;;
54271;SDS011;40184;53.362;5.216;2023-11-21T06:21:48;14.27;;;2.83;;
54271;SDS011;40184;53.362;5.216;2023-11-21T06:24:14;13.18;;;2.95;;
54271;SDS011;40184;53.362;5.216;2023-11-21T06:26:40;10.65;;;2.60;;
54271;SDS011;40184;53.362;5.216;2023-11-21T06:29:06;7.55;;;2.38;;
54271;SDS011;40184;53.362;5.216;2023-11-21T06:31:32;5.32;;;1.98;;
54271;SDS011;40184;53.362;5.216;2023-11-21T06:33:58;11.82;;;2.80;;
54271;SDS011;40184;53.362;5.216;2023-11-21T06:36:25;14.77;;;3.35;;
54271;SDS011;40184;53.362;5.216;2023-11-21T06:38:54;6.32;;;1.77;;
54271;SDS011;40184;53.362;5.216;2023-11-21T06:41:20;6.85;;;2.28;;
54271;SDS011;40184;53.362;5.216;2023-11-21T06:43:46;17.80;;;3.13;;
54271;SDS011;40184;53.362;5.216;2023-11-21T06:46:13;8.00;;;2.50;;
54271;SDS011;40184;53.362;5.216;2023-11-21T06:48:40;11.05;;;2.35;;
54271;SDS011;40184;53.362;5.216;2023-11-21T06:51:06;7.53;;;2.30;;
54271;SDS011;40184;53.362;5.216;2023-11-21T06:53:35;10.70;;;2.78;;
54271;SDS011;40184;53.362;5.216;2023-11-21T06:56:01;12.98;;;2.85;;
54271;SDS011;40184;53.362;5.216;2023-11-21T06:58:27;10.68;;;2.40;;
54271;SDS011;40184;53.362;5.216;2023-11-21T07:00:53;9.25;;;2.05;;
54271;SDS011;40184;53.362;5.216;2023-11-21T07:03:19;8.45;;;2.63;;
54271;SDS011;40184;53.362;5.216;2023-11-21T07:05:46;13.27;;;3.30;;
54271;SDS011;40184;53.362;5.216;2023-11-21T07:08:12;6.18;;;1.77;;
54271;SDS011;40184;53.362;5.216;2023-11-21T07:10:38;9.00;;;2.55;;
54271;SDS011;40184;53.362;5.216;2023-11-21T07:13:04;4.80;;;1.45;;
54271;SDS011;40184;53.362;5.216;2023-11-21T07:15:30;8.60;;;2.25;;
54271;SDS011;40184;53.362;5.216;2023-11-21T07:17:56;14.05;;;2.00;;
54271;SDS011;40184;53.362;5.216;2023-11-21T07:20:22;7.90;;;1.77;;
54271;SDS011;40184;53.362;5.216;2023-11-21T07:22:48;5.25;;;1.77;;
54271;SDS011;40184;53.362;5.216;2023-11-21T07:25:15;11.38;;;2.60;;
54271;SDS011;40184;53.362;5.216;2023-11-21T07:27:41;5.60;;;1.67;;
54271;SDS011;40184;53.362;5.216;2023-11-21T07:30:07;9.98;;;2.20;;
54271;SDS011;40184;53.362;5.216;2023-11-21T07:32:34;11.38;;;2.55;;
54271;SDS011;40184;53.362;5.216;2023-11-21T07:35:01;10.77;;;2.38;;
54271;SDS011;40184;53.362;5.216;2023-11-21T07:37:27;8.52;;;1.83;;
54271;SDS011;40184;53.362;5.216;2023-11-21T07:39:53;8.68;;;2.83;;
54271;SDS011;40184;53.362;5.216;2023-11-21T07:42:22;7.30;;;2.00;;
54271;SDS011;40184;53.362;5.216;2023-11-21T07:44:49;8.55;;;1.90;;
54271;SDS011;40184;53.362;5.216;2023-11-21T07:47:15;10.48;;;2.67;;
54271;SDS011;40184;53.362;5.216;2023-11-21T07:49:41;7.80;;;2.83;;
54271;SDS011;40184;53.362;5.216;2023-11-21T07:52:09;8.45;;;1.63;;
54271;SDS011;40184;53.362;5.216;2023-11-21T07:54:35;9.02;;;2.08;;
54271;SDS011;40184;53.362;5.216;2023-11-21T07:57:01;7.40;;;2.40;;
54271;SDS011;40184;53.362;5.216;2023-11-21T07:59:29;9.02;;;2.53;;
54271;SDS011;40184;53.362;5.216;2023-11-21T08:01:55;9.23;;;2.33;;
54271;SDS011;40184;53.362;5.216;2023-11-21T08:04:21;12.55;;;3.47;;
54271;SDS011;40184;53.362;5.216;2023-11-21T08:06:48;9.13;;;2.17;;
54271;SDS011;40184;53.362;5.216;2023-11-21T08:09:14;7.85;;;2.13;;
54271;SDS011;40184;53.362;5.216;2023-11-21T08:11:42;10.85;;;2.83;;
54271;SDS011;40184;53.362;5.216;2023-11-21T08:14:08;8.60;;;2.08;;
54271;SDS011;40184;53.362;5.216;2023-11-21T08:16:34;5.85;;;3.05;;
54271;SDS011;40184;53.362;5.216;2023-11-21T08:19:00;7.18;;;2.15;;
54271;SDS011;40184;53.362;5.216;2023-11-21T08:21:27;8.82;;;2.50;;
54271;SDS011;40184;53.362;5.216;2023-11-21T08:23:54;11.15;;;2.25;;
54271;SDS011;40184;53.362;5.216;2023-11-21T08:26:20;5.15;;;1.73;;
54271;SDS011;40184;53.362;5.216;2023-11-21T08:28:47;12.02;;;2.85;;
54271;SDS011;40184;53.362;5.216;2023-11-21T08:31:13;9.18;;;2.40;;
54271;SDS011;40184;53.362;5.216;2023-11-21T08:33:39;13.98;;;3.10;;
54271;SDS011;40184;53.362;5.216;2023-11-21T08:36:08;10.32;;;2.88;;
54271;SDS011;40184;53.362;5.216;2023-11-21T08:38:36;5.40;;;2.00;;
54271;SDS011;40184;53.362;5.216;2023-11-21T08:41:04;5.32;;;2.17;;
54271;SDS011;40184;53.362;5.216;2023-11-21T08:43:32;12.30;;;2.55;;
54271;SDS011;40184;53.362;5.216;2023-11-21T08:45:59;10.48;;;2.47;;
54271;SDS011;40184;53.362;5.216;2023-11-21T08:48:25;8.52;;;3.03;;
54271;SDS011;40184;53.362;5.216;2023-11-21T08:50:53;11.60;;;2.83;;
54271;SDS011;40184;53.362;5.216;2023-11-21T08:53:19;5.72;;;2.47;;
54271;SDS011;40184;53.362;5.216;2023-11-21T08:55:45;12.23;;;2.45;;
54271;SDS011;40184;53.362;5.216;2023-11-21T08:58:11;10.25;;;3.28;;
54271;SDS011;40184;53.362;5.216;2023-11-21T09:00:39;4.30;;;1.90;;
54271;SDS011;40184;53.362;5.216;2023-11-21T09:03:05;7.38;;;2.25;;
54271;SDS011;40184;53.362;5.216;2023-11-21T09:05:33;4.50;;;2.03;;
54271;SDS011;40184;53.362;5.216;2023-11-21T09:07:59;4.15;;;1.70;;
54271;SDS011;40184;53.362;5.216;2023-11-21T09:10:26;6.90;;;1.90;;
54271;SDS011;40184;53.362;5.216;2023-11-21T09:12:53;3.45;;;1.67;;
54271;SDS011;40184;53.362;5.216;2023-11-21T09:15:19;4.05;;;1.40;;
54271;SDS011;40184;53.362;5.216;2023-11-21T09:17:45;3.50;;;1.98;;
54271;SDS011;40184;53.362;5.216;2023-11-21T09:20:11;8.32;;;1.88;;
54271;SDS011;40184;53.362;5.216;2023-11-21T09:22:39;6.50;;;2.28;;
54271;SDS011;40184;53.362;5.216;2023-11-21T09:25:06;7.07;;;2.17;;
54271;SDS011;40184;53.362;5.216;2023-11-21T09:27:33;11.63;;;2.63;;
54271;SDS011;40184;53.362;5.216;2023-11-21T09:30:03;5.15;;;2.83;;
54271;SDS011;40184;53.362;5.216;2023-11-21T09:32:30;9.82;;;2.80;;
54271;SDS011;40184;53.362;5.216;2023-11-21T09:34:56;10.45;;;3.88;;
54271;SDS011;40184;53.362;5.216;2023-11-21T09:37:23;10.05;;;3.58;;
54271;SDS011;40184;53.362;5.216;2023-11-21T09:39:52;7.05;;;2.97;;
54271;SDS011;40184;53.362;5.216;2023-11-21T09:42:32;7.50;;;3.45;;
54271;SDS011;40184;53.362;5.216;2023-11-21T09:47:29;7.18;;;2.90;;
54271;SDS011;40184;53.362;5.216;2023-11-21T09:49:56;9.38;;;4.43;;
54271;SDS011;40184;53.362;5.216;2023-11-21T09:52:24;10.00;;;4.18;;
54271;SDS011;40184;53.362;5.216;2023-11-21T09:54:51;6.82;;;3.65;;
54271;SDS011;40184;53.362;5.216;2023-11-21T09:57:19;5.20;;;3.10;;
54271;SDS011;40184;53.362;5.216;2023-11-21T09:59:51;7.80;;;4.05;;
54271;SDS011;40184;53.362;5.216;2023-11-21T10:02:22;8.05;;;3.60;;
54271;SDS011;40184;53.362;5.216;2023-11-21T10:04:51;11.80;;;3.33;;
54271;SDS011;40184;53.362;5.216;2023-11-21T10:07:17;7.88;;;3.45;;
54271;SDS011;40184;53.362;5.216;2023-11-21T10:09:45;11.15;;;3.88;;
54271;SDS011;40184;53.362;5.216;2023-11-21T10:12:11;6.43;;;3.15;;
54271;SDS011;40184;53.362;5.216;2023-11-21T10:14:37;10.68;;;3.88;;
54271;SDS011;40184;53.362;5.216;2023-11-21T10:17:07;8.18;;;4.30;;
54271;SDS011;40184;53.362;5.216;2023-11-21T10:19:33;9.70;;;4.28;;
54271;SDS011;40184;53.362;5.216;2023-11-21T10:22:01;9.73;;;3.78;;
54271;SDS011;40184;53.362;5.216;2023-11-21T10:24:28;8.40;;;4.25;;
54271;SDS011;40184;53.362;5.216;2023-11-21T10:26:54;15.55;;;5.65;;
54271;SDS011;40184;53.362;5.216;2023-11-21T10:29:20;11.30;;;5.25;;
54271;SDS011;40184;53.362;5.216;2023-11-21T10:31:49;11.07;;;6.00;;
54271;SDS011;40184;53.362;5.216;2023-11-21T10:34:16;12.70;;;5.90;;
54271;SDS011;40184;53.362;5.216;2023-11-21T10:36:42;9.70;;;6.00;;
54271;SDS011;40184;53.362;5.216;2023-11-21T10:39:08;13.45;;;7.25;;
54271;SDS011;40184;53.362;5.216;2023-11-21T10:41:35;14.63;;;7.53;;
54271;SDS011;40184;53.362;5.216;2023-11-21T10:44:02;10.88;;;6.55;;
54271;SDS011;40184;53.362;5.216;2023-11-21T10:46:34;12.40;;;7.18;;
54271;SDS011;40184;53.362;5.216;2023-11-21T10:49:00;12.68;;;7.43;;
54271;SDS011;40184;53.362;5.216;2023-11-21T10:51:27;10.10;;;6.15;;
54271;SDS011;40184;53.362;5.216;2023-11-21T10:53:53;14.02;;;6.55;;
54271;SDS011;40184;53.362;5.216;2023-11-21T10:56:19;12.32;;;6.47;;
54271;SDS011;40184;53.362;5.216;2023-11-21T10:58:48;14.43;;;7.20;;
54271;SDS011;40184;53.362;5.216;2023-11-21T11:01:17;10.00;;;5.43;;
54271;SDS011;40184;53.362;5.216;2023-11-21T11:03:44;14.25;;;5.90;;
54271;SDS011;40184;53.362;5.216;2023-11-21T11:06:10;10.90;;;5.43;;
54271;SDS011;40184;53.362;5.216;2023-11-21T11:08:40;9.13;;;5.20;;
54271;SDS011;40184;53.362;5.216;2023-11-21T11:11:06;8.25;;;4.40;;
54271;SDS011;40184;53.362;5.216;2023-11-21T11:13:34;6.72;;;4.57;;
54271;SDS011;40184;53.362;5.216;2023-11-21T11:16:01;9.93;;;3.90;;
54271;SDS011;40184;53.362;5.216;2023-11-21T11:18:28;10.40;;;4.65;;
54271;SDS011;40184;53.362;5.216;2023-11-21T11:20:55;9.38;;;4.68;;
54271;SDS011;40184;53.362;5.216;2023-11-21T11:23:30;6.55;;;2.92;;
54271;SDS011;40184;53.362;5.216;2023-11-21T11:31:31;4.45;;;3.38;;
54271;SDS011;40184;53.362;5.216;2023-11-21T11:36:44;6.10;;;2.70;;
54271;SDS011;40184;53.362;5.216;2023-11-21T11:39:29;3.40;;;3.03;;
54271;SDS011;40184;53.362;5.216;2023-11-21T11:41:56;10.27;;;3.78;;
54271;SDS011;40184;53.362;5.216;2023-11-21T11:47:31;5.13;;;3.45;;
54271;SDS011;40184;53.362;5.216;2023-11-21T11:50:09;4.38;;;3.22;;
54271;SDS011;40184;53.362;5.216;2023-11-21T11:52:50;5.60;;;3.88;;
54271;SDS011;40184;53.362;5.216;2023-11-21T11:55:19;5.70;;;3.33;;
54271;SDS011;40184;53.362;5.216;2023-11-21T11:57:52;4.30;;;3.28;;
54271;SDS011;40184;53.362;5.216;2023-11-21T12:00:22;8.88;;;4.07;;
54271;SDS011;40184;53.362;5.216;2023-11-21T12:02:52;11.13;;;3.95;;
54271;SDS011;40184;53.362;5.216;2023-11-21T12:05:19;6.18;;;4.28;;
54271;SDS011;40184;53.362;5.216;2023-11-21T12:07:46;5.75;;;4.20;;
54271;SDS011;40184;53.362;5.216;2023-11-21T12:10:13;8.55;;;5.07;;
54271;SDS011;40184;53.362;5.216;2023-11-21T12:12:46;7.82;;;4.80;;
54271;SDS011;40184;53.362;5.216;2023-11-21T12:15:12;5.47;;;4.68;;
54271;SDS011;40184;53.362;5.216;2023-11-21T12:17:39;6.65;;;5.45;;
54271;SDS011;40184;53.362;5.216;2023-11-21T12:20:06;20.40;;;6.13;;
54271;SDS011;40184;53.362;5.216;2023-11-21T12:22:40;11.52;;;6.90;;
54271;SDS011;40184;53.362;5.216;2023-11-21T12:25:07;10.10;;;7.20;;
54271;SDS011;40184;53.362;5.216;2023-11-21T12:27:33;7.15;;;5.25;;
54271;SDS011;40184;53.362;5.216;2023-11-21T12:30:00;9.60;;;5.85;;
54271;SDS011;40184;53.362;5.216;2023-11-21T12:32:26;11.38;;;6.18;;
54271;SDS011;40184;53.362;5.216;2023-11-21T12:34:52;6.05;;;5.38;;
54271;SDS011;40184;53.362;5.216;2023-11-21T12:37:18;8.05;;;5.22;;
54271;SDS011;40184;53.362;5.216;2023-11-21T12:39:44;6.70;;;4.50;;
54271;SDS011;40184;53.362;5.216;2023-11-21T12:42:10;7.82;;;4.15;;
54271;SDS011;40184;53.362;5.216;2023-11-21T12:44:36;5.32;;;4.18;;
54271;SDS011;40184;53.362;5.216;2023-11-21T12:47:06;7.85;;;5.22;;
54271;SDS011;40184;53.362;5.216;2023-11-21T12:49:32;9.88;;;5.47;;
54271;SDS011;40184;53.362;5.216;2023-11-21T12:51:59;5.28;;;4.78;;
54271;SDS011;40184;53.362;5.216;2023-11-21T12:54:25;9.07;;;5.32;;
54271;SDS011;40184;53.362;5.216;2023-11-21T12:56:51;8.75;;;5.28;;
54271;SDS011;40184;53.362;5.216;2023-11-21T12:59:17;6.20;;;5.15;;
54271;SDS011;40184;53.362;5.216;2023-11-21T13:01:43;9.55;;;5.05;;
54271;SDS011;40184;53.362;5.216;2023-11-21T13:04:11;15.05;;;6.43;;
54271;SDS011;40184;53.362;5.216;2023-11-21T13:06:37;8.25;;;5.53;;
54271;SDS011;40184;53.362;5.216;2023-11-21T13:09:09;8.80;;;5.45;;
54271;SDS011;40184;53.362;5.216;2023-11-21T13:11:36;9.18;;;5.25;;
54271;SDS011;40184;53.362;5.216;2023-11-21T13:14:02;9.00;;;5.38;;
54271;SDS011;40184;53.362;5.216;2023-11-21T13:16:29;7.60;;;4.93;;
54271;SDS011;40184;53.362;5.216;2023-11-21T13:18:56;9.65;;;5.38;;
54271;SDS011;40184;53.362;5.216;2023-11-21T13:21:23;12.52;;;4.60;;
54271;SDS011;40184;53.362;5.216;2023-11-21T13:23:49;7.57;;;4.15;;
54271;SDS011;40184;53.362;5.216;2023-11-21T13:26:18;5.28;;;3.80;;
54271;SDS011;40184;53.362;5.216;2023-11-21T13:28:45;4.95;;;4.18;;
54271;SDS011;40184;53.362;5.216;2023-11-21T13:31:12;6.07;;;4.00;;
54271;SDS011;40184;53.362;5.216;2023-11-21T13:33:52;8.20;;;4.25;;
54271;SDS011;40184;53.362;5.216;2023-11-21T13:36:22;5.93;;;3.85;;
54271;SDS011;40184;53.362;5.216;2023-11-21T13:38:51;9.20;;;4.18;;
54271;SDS011;40184;53.362;5.216;2023-11-21T13:41:18;7.18;;;3.58;;
54271;SDS011;40184;53.362;5.216;2023-11-21T13:43:44;7.10;;;3.60;;
54271;SDS011;40184;53.362;5.216;2023-11-21T13:46:17;6.30;;;3.55;;
54271;SDS011;40184;53.362;5.216;2023-11-21T13:48:47;6.28;;;3.08;;
54271;SDS011;40184;53.362;5.216;2023-11-21T13:51:20;4.20;;;3.10;;
54271;SDS011;40184;53.362;5.216;2023-11-21T13:53:54;3.88;;;3.47;;
54271;SDS011;40184;53.362;5.216;2023-11-21T13:56:20;7.28;;;3.25;;
54271;SDS011;40184;53.362;5.216;2023-11-21T13:58:50;5.57;;;3.60;;
54271;SDS011;40184;53.362;5.216;2023-11-21T14:01:18;6.32;;;3.45;;
54271;SDS011;40184;53.362;5.216;2023-11-21T14:03:50;11.82;;;5.25;;
54271;SDS011;40184;53.362;5.216;2023-11-21T14:06:26;5.47;;;3.40;;
54271;SDS011;40184;53.362;5.216;2023-11-21T14:08:59;5.80;;;3.25;;
54271;SDS011;40184;53.362;5.216;2023-11-21T14:11:30;7.75;;;3.40;;
54271;SDS011;40184;53.362;5.216;2023-11-21T14:13:56;6.30;;;3.78;;
54271;SDS011;40184;53.362;5.216;2023-11-21T14:16:24;4.10;;;3.00;;
54271;SDS011;40184;53.362;5.216;2023-11-21T14:18:50;5.43;;;3.40;;
54271;SDS011;40184;53.362;5.216;2023-11-21T14:21:29;6.15;;;3.60;;
54271;SDS011;40184;53.362;5.216;2023-11-21T14:23:55;6.10;;;3.00;;
54271;SDS011;40184;53.362;5.216;2023-11-21T14:26:21;4.60;;;2.88;;
54271;SDS011;40184;53.362;5.216;2023-11-21T14:28:48;6.15;;;3.17;;
54271;SDS011;40184;53.362;5.216;2023-11-21T14:31:16;3.95;;;2.95;;
54271;SDS011;40184;53.362;5.216;2023-11-21T14:33:43;5.93;;;3.03;;
54271;SDS011;40184;53.362;5.216;2023-11-21T14:36:10;4.53;;;2.88;;
54271;SDS011;40184;53.362;5.216;2023-11-21T14:38:37;6.60;;;3.53;;
54271;SDS011;40184;53.362;5.216;2023-11-21T14:41:04;3.65;;;2.40;;
54271;SDS011;40184;53.362;5.216;2023-11-21T14:43:33;5.00;;;2.30;;
54271;SDS011;40184;53.362;5.216;2023-11-21T14:46:00;5.65;;;1.88;;
54271;SDS011;40184;53.362;5.216;2023-11-21T14:48:28;8.88;;;2.45;;
54271;SDS011;40184;53.362;5.216;2023-11-21T14:51:12;2.70;;;2.03;;
54271;SDS011;40184;53.362;5.216;2023-11-21T14:53:56;9.63;;;2.95;;